sensor_id;sensor_type;location;lat;lon;timestamp;temperature;humidity
29775;DHT22;16676;51.202;6.774;2023-06-22T00:02:54;27.50;47.20
29775;DHT22;16676;51.202;6.774;2023-06-22T00:06:56;27.40;46.20
29775;DHT22;16676;51.202;6.774;2023-06-22T00:10:57;27.40;47.00
29775;DHT22;16676;51.202;6.774;2023-06-22T00:15:01;27.50;47.40
29775;DHT22;16676;51.202;6.774;2023-06-22T00:19:03;27.40;46.20
29775;DHT22;16676;51.202;6.774;2023-06-22T00:23:06;27.40;46.70
29775;DHT22;16676;51.202;6.774;2023-06-22T00:27:09;27.30;46.90
29775;DHT22;16676;51.202;6.774;2023-06-22T00:31:12;27.30;46.30
29775;DHT22;16676;51.202;6.774;2023-06-22T00:35:14;27.30;46.70
29775;DHT22;16676;51.202;6.774;2023-06-22T00:39:16;27.30;47.60
29775;DHT22;16676;51.202;6.774;2023-06-22T00:43:18;27.30;46.50
29775;DHT22;16676;51.202;6.774;2023-06-22T00:47:21;27.30;47.10
29775;DHT22;16676;51.202;6.774;2023-06-22T00:51:23;27.20;46.70
29775;DHT22;16676;51.202;6.774;2023-06-22T00:55:26;27.20;47.50
29775;DHT22;16676;51.202;6.774;2023-06-22T00:59:28;27.30;47.80
29775;DHT22;16676;51.202;6.774;2023-06-22T01:03:31;27.30;47.40
29775;DHT22;16676;51.202;6.774;2023-06-22T01:07:36;27.20;47.30
29775;DHT22;16676;51.202;6.774;2023-06-22T01:11:41;27.20;48.20
29775;DHT22;16676;51.202;6.774;2023-06-22T01:15:51;27.20;47.60
29775;DHT22;16676;51.202;6.774;2023-06-22T01:19:55;27.10;48.70
29775;DHT22;16676;51.202;6.774;2023-06-22T01:24:14;27.20;48.20
29775;DHT22;16676;51.202;6.774;2023-06-22T01:32:31;27.20;49.40
29775;DHT22;16676;51.202;6.774;2023-06-22T01:36:34;27.20;48.70
29775;DHT22;16676;51.202;6.774;2023-06-22T01:40:37;27.20;49.00
29775;DHT22;16676;51.202;6.774;2023-06-22T01:44:39;27.10;49.00
29775;DHT22;16676;51.202;6.774;2023-06-22T01:48:43;27.20;49.20
29775;DHT22;16676;51.202;6.774;2023-06-22T01:52:45;27.10;49.40
29775;DHT22;16676;51.202;6.774;2023-06-22T01:56:47;27.10;49.70
29775;DHT22;16676;51.202;6.774;2023-06-22T02:00:52;27.10;50.80
29775;DHT22;16676;51.202;6.774;2023-06-22T02:04:58;27.10;49.80
29775;DHT22;16676;51.202;6.774;2023-06-22T02:09:02;27.10;50.60
29775;DHT22;16676;51.202;6.774;2023-06-22T02:13:09;27.10;50.10
29775;DHT22;16676;51.202;6.774;2023-06-22T02:17:11;27.10;50.40
29775;DHT22;16676;51.202;6.774;2023-06-22T02:21:15;27.10;51.20
29775;DHT22;16676;51.202;6.774;2023-06-22T02:25:17;27.00;51.10
29775;DHT22;16676;51.202;6.774;2023-06-22T02:29:19;27.00;50.60
29775;DHT22;16676;51.202;6.774;2023-06-22T02:33:21;27.00;51.00
29775;DHT22;16676;51.202;6.774;2023-06-22T02:37:25;27.00;51.10
29775;DHT22;16676;51.202;6.774;2023-06-22T02:41:30;27.00;52.50
29775;DHT22;16676;51.202;6.774;2023-06-22T02:45:32;27.00;51.20
29775;DHT22;16676;51.202;6.774;2023-06-22T02:49:34;26.90;51.30
29775;DHT22;16676;51.202;6.774;2023-06-22T02:53:38;27.00;51.90
29775;DHT22;16676;51.202;6.774;2023-06-22T02:57:39;27.00;51.40
29775;DHT22;16676;51.202;6.774;2023-06-22T03:01:46;27.00;52.20
29775;DHT22;16676;51.202;6.774;2023-06-22T03:05:48;26.90;52.00
29775;DHT22;16676;51.202;6.774;2023-06-22T03:09:51;27.00;53.20
29775;DHT22;16676;51.202;6.774;2023-06-22T03:13:53;27.00;51.80
29775;DHT22;16676;51.202;6.774;2023-06-22T03:17:55;26.90;52.10
29775;DHT22;16676;51.202;6.774;2023-06-22T03:21:57;26.90;52.00
29775;DHT22;16676;51.202;6.774;2023-06-22T03:26:00;26.90;52.20
29775;DHT22;16676;51.202;6.774;2023-06-22T03:30:03;26.80;52.00
29775;DHT22;16676;51.202;6.774;2023-06-22T03:34:05;26.80;52.50
29775;DHT22;16676;51.202;6.774;2023-06-22T03:38:07;26.90;52.10
29775;DHT22;16676;51.202;6.774;2023-06-22T03:42:10;26.90;52.10
29775;DHT22;16676;51.202;6.774;2023-06-22T03:46:12;26.80;52.60
29775;DHT22;16676;51.202;6.774;2023-06-22T03:50:14;26.80;53.30
29775;DHT22;16676;51.202;6.774;2023-06-22T03:54:16;26.80;52.00
29775;DHT22;16676;51.202;6.774;2023-06-22T03:58:20;26.70;53.60
29775;DHT22;16676;51.202;6.774;2023-06-22T04:02:22;26.80;52.80
29775;DHT22;16676;51.202;6.774;2023-06-22T04:06:23;26.80;53.70
29775;DHT22;16676;51.202;6.774;2023-06-22T04:10:25;26.80;52.90
29775;DHT22;16676;51.202;6.774;2023-06-22T04:14:29;26.80;52.50
29775;DHT22;16676;51.202;6.774;2023-06-22T04:18:31;26.80;52.70
29775;DHT22;16676;51.202;6.774;2023-06-22T04:22:32;26.80;53.30
29775;DHT22;16676;51.202;6.774;2023-06-22T04:26:34;26.70;53.30
29775;DHT22;16676;51.202;6.774;2023-06-22T04:30:39;26.80;53.50
29775;DHT22;16676;51.202;6.774;2023-06-22T04:34:46;26.70;53.50
29775;DHT22;16676;51.202;6.774;2023-06-22T04:38:48;26.60;53.00
29775;DHT22;16676;51.202;6.774;2023-06-22T04:42:53;26.70;53.80
29775;DHT22;16676;51.202;6.774;2023-06-22T04:46:57;26.70;54.80
29775;DHT22;16676;51.202;6.774;2023-06-22T04:51:02;26.80;56.10
29775;DHT22;16676;51.202;6.774;2023-06-22T04:55:06;26.70;57.10
29775;DHT22;16676;51.202;6.774;2023-06-22T04:59:09;26.70;52.30
29775;DHT22;16676;51.202;6.774;2023-06-22T05:03:15;26.50;52.40
29775;DHT22;16676;51.202;6.774;2023-06-22T05:07:19;26.40;52.50
29775;DHT22;16676;51.202;6.774;2023-06-22T05:11:21;26.40;52.90
29775;DHT22;16676;51.202;6.774;2023-06-22T05:15:23;26.30;53.10
29775;DHT22;16676;51.202;6.774;2023-06-22T05:19:30;26.20;53.40
29775;DHT22;16676;51.202;6.774;2023-06-22T05:23:33;26.20;53.50
29775;DHT22;16676;51.202;6.774;2023-06-22T05:27:35;26.10;53.60
29775;DHT22;16676;51.202;6.774;2023-06-22T05:31:40;26.10;53.60
29775;DHT22;16676;51.202;6.774;2023-06-22T05:35:43;26.20;53.40
29775;DHT22;16676;51.202;6.774;2023-06-22T05:39:45;26.20;53.40
29775;DHT22;16676;51.202;6.774;2023-06-22T05:43:47;26.20;53.50
29775;DHT22;16676;51.202;6.774;2023-06-22T05:47:49;26.10;53.70
29775;DHT22;16676;51.202;6.774;2023-06-22T05:51:52;26.10;53.90
29775;DHT22;16676;51.202;6.774;2023-06-22T05:55:54;26.00;54.00
29775;DHT22;16676;51.202;6.774;2023-06-22T05:59:56;26.00;53.90
29775;DHT22;16676;51.202;6.774;2023-06-22T06:03:58;26.00;53.90
29775;DHT22;16676;51.202;6.774;2023-06-22T06:08:02;26.00;54.10
29775;DHT22;16676;51.202;6.774;2023-06-22T06:12:06;25.90;54.40
29775;DHT22;16676;51.202;6.774;2023-06-22T06:16:08;25.90;54.60
29775;DHT22;16676;51.202;6.774;2023-06-22T06:20:10;25.90;54.70
29775;DHT22;16676;51.202;6.774;2023-06-22T06:24:14;25.90;54.60
29775;DHT22;16676;51.202;6.774;2023-06-22T06:28:15;25.90;54.60
29775;DHT22;16676;51.202;6.774;2023-06-22T06:32:17;26.00;54.70
29775;DHT22;16676;51.202;6.774;2023-06-22T06:36:19;26.10;54.40
29775;DHT22;16676;51.202;6.774;2023-06-22T06:40:22;26.10;56.30
29775;DHT22;16676;51.202;6.774;2023-06-22T06:44:24;26.20;55.90
29775;DHT22;16676;51.202;6.774;2023-06-22T06:48:26;26.20;55.00
29775;DHT22;16676;51.202;6.774;2023-06-22T06:52:28;26.20;55.00
29775;DHT22;16676;51.202;6.774;2023-06-22T06:56:31;26.30;56.20
29775;DHT22;16676;51.202;6.774;2023-06-22T07:00:33;26.30;56.70
29775;DHT22;16676;51.202;6.774;2023-06-22T07:04:36;26.30;57.00
29775;DHT22;16676;51.202;6.774;2023-06-22T07:08:38;26.40;58.80
29775;DHT22;16676;51.202;6.774;2023-06-22T07:12:41;26.40;58.10
29775;DHT22;16676;51.202;6.774;2023-06-22T07:16:43;26.40;59.60
29775;DHT22;16676;51.202;6.774;2023-06-22T07:20:45;26.40;57.90
29775;DHT22;16676;51.202;6.774;2023-06-22T07:24:48;26.40;57.80
29775;DHT22;16676;51.202;6.774;2023-06-22T07:28:51;26.40;59.10
29775;DHT22;16676;51.202;6.774;2023-06-22T07:32:53;26.40;59.60
29775;DHT22;16676;51.202;6.774;2023-06-22T07:36:55;26.40;58.30
29775;DHT22;16676;51.202;6.774;2023-06-22T07:40:57;26.40;59.90
29775;DHT22;16676;51.202;6.774;2023-06-22T07:45:00;26.40;59.60
29775;DHT22;16676;51.202;6.774;2023-06-22T07:49:03;26.50;59.20
29775;DHT22;16676;51.202;6.774;2023-06-22T07:53:05;26.60;60.60
29775;DHT22;16676;51.202;6.774;2023-06-22T07:57:07;26.60;59.50
29775;DHT22;16676;51.202;6.774;2023-06-22T08:01:10;26.60;60.20
29775;DHT22;16676;51.202;6.774;2023-06-22T08:05:13;26.60;61.90
29775;DHT22;16676;51.202;6.774;2023-06-22T08:09:15;26.50;61.90
29775;DHT22;16676;51.202;6.774;2023-06-22T08:13:17;26.60;62.20
29775;DHT22;16676;51.202;6.774;2023-06-22T08:17:21;26.60;62.60
29775;DHT22;16676;51.202;6.774;2023-06-22T08:21:23;26.70;62.20
29775;DHT22;16676;51.202;6.774;2023-06-22T08:25:25;26.80;63.30
29775;DHT22;16676;51.202;6.774;2023-06-22T08:29:27;26.90;64.70
29775;DHT22;16676;51.202;6.774;2023-06-22T08:33:30;26.90;64.10
29775;DHT22;16676;51.202;6.774;2023-06-22T08:37:32;26.90;65.60
29775;DHT22;16676;51.202;6.774;2023-06-22T08:41:35;27.00;62.80
29775;DHT22;16676;51.202;6.774;2023-06-22T08:45:37;27.00;63.40
29775;DHT22;16676;51.202;6.774;2023-06-22T08:49:40;27.10;61.70
29775;DHT22;16676;51.202;6.774;2023-06-22T08:53:42;27.10;62.80
29775;DHT22;16676;51.202;6.774;2023-06-22T08:57:46;27.10;61.90
29775;DHT22;16676;51.202;6.774;2023-06-22T09:01:47;27.00;64.20
29775;DHT22;16676;51.202;6.774;2023-06-22T09:05:51;27.10;63.70
29775;DHT22;16676;51.202;6.774;2023-06-22T09:09:53;27.20;63.90
29775;DHT22;16676;51.202;6.774;2023-06-22T09:13:55;27.20;63.90
29775;DHT22;16676;51.202;6.774;2023-06-22T09:17:56;27.30;62.40
29775;DHT22;16676;51.202;6.774;2023-06-22T09:22:00;27.30;62.80
29775;DHT22;16676;51.202;6.774;2023-06-22T09:26:02;27.40;62.50
29775;DHT22;16676;51.202;6.774;2023-06-22T09:30:06;27.30;63.10
29775;DHT22;16676;51.202;6.774;2023-06-22T09:34:08;27.30;63.00
29775;DHT22;16676;51.202;6.774;2023-06-22T09:38:11;27.30;63.00
29775;DHT22;16676;51.202;6.774;2023-06-22T09:42:13;27.40;61.80
29775;DHT22;16676;51.202;6.774;2023-06-22T09:46:15;27.40;60.90
29775;DHT22;16676;51.202;6.774;2023-06-22T09:50:17;27.40;60.80
29775;DHT22;16676;51.202;6.774;2023-06-22T09:54:20;27.40;59.80
29775;DHT22;16676;51.202;6.774;2023-06-22T09:58:22;27.20;59.40
29775;DHT22;16676;51.202;6.774;2023-06-22T10:02:24;27.20;59.50
29775;DHT22;16676;51.202;6.774;2023-06-22T10:06:26;27.20;59.90
29775;DHT22;16676;51.202;6.774;2023-06-22T10:10:29;27.30;59.70
29775;DHT22;16676;51.202;6.774;2023-06-22T10:14:31;27.30;59.60
29775;DHT22;16676;51.202;6.774;2023-06-22T10:18:33;27.30;59.10
29775;DHT22;16676;51.202;6.774;2023-06-22T10:22:35;27.40;58.90
29775;DHT22;16676;51.202;6.774;2023-06-22T10:26:38;27.40;59.90
29775;DHT22;16676;51.202;6.774;2023-06-22T10:30:40;27.40;60.50
29775;DHT22;16676;51.202;6.774;2023-06-22T10:34:42;27.40;60.20
29775;DHT22;16676;51.202;6.774;2023-06-22T10:38:44;27.40;60.00
29775;DHT22;16676;51.202;6.774;2023-06-22T10:42:49;27.40;60.50
29775;DHT22;16676;51.202;6.774;2023-06-22T10:46:51;27.40;61.30
29775;DHT22;16676;51.202;6.774;2023-06-22T10:50:53;27.50;61.00
29775;DHT22;16676;51.202;6.774;2023-06-22T10:54:55;27.50;62.40
29775;DHT22;16676;51.202;6.774;2023-06-22T10:58:58;27.60;63.50
29775;DHT22;16676;51.202;6.774;2023-06-22T11:03:00;27.60;64.90
29775;DHT22;16676;51.202;6.774;2023-06-22T11:07:02;27.50;66.30
29775;DHT22;16676;51.202;6.774;2023-06-22T11:11:04;27.60;65.80
29775;DHT22;16676;51.202;6.774;2023-06-22T11:15:08;27.70;66.00
29775;DHT22;16676;51.202;6.774;2023-06-22T11:19:10;27.70;68.70
29775;DHT22;16676;51.202;6.774;2023-06-22T11:23:12;27.80;67.40
29775;DHT22;16676;51.202;6.774;2023-06-22T11:27:14;27.80;69.00
29775;DHT22;16676;51.202;6.774;2023-06-22T11:31:17;27.80;68.60
29775;DHT22;16676;51.202;6.774;2023-06-22T11:35:19;27.80;69.30
29775;DHT22;16676;51.202;6.774;2023-06-22T11:39:21;27.70;68.70
29775;DHT22;16676;51.202;6.774;2023-06-22T11:43:23;27.70;70.20
29775;DHT22;16676;51.202;6.774;2023-06-22T11:47:26;27.70;71.40
29775;DHT22;16676;51.202;6.774;2023-06-22T11:51:28;27.70;71.60
29775;DHT22;16676;51.202;6.774;2023-06-22T11:55:31;27.70;73.20
29775;DHT22;16676;51.202;6.774;2023-06-22T11:59:33;27.70;73.70
29775;DHT22;16676;51.202;6.774;2023-06-22T12:03:37;27.70;72.50
29775;DHT22;16676;51.202;6.774;2023-06-22T12:07:38;27.80;73.10
29775;DHT22;16676;51.202;6.774;2023-06-22T12:11:40;27.80;75.00
29775;DHT22;16676;51.202;6.774;2023-06-22T12:15:42;27.80;72.90
29775;DHT22;16676;51.202;6.774;2023-06-22T12:19:46;27.80;73.10
29775;DHT22;16676;51.202;6.774;2023-06-22T12:23:47;27.80;72.60
29775;DHT22;16676;51.202;6.774;2023-06-22T12:27:49;27.80;73.80
29775;DHT22;16676;51.202;6.774;2023-06-22T12:31:51;27.70;75.10
29775;DHT22;16676;51.202;6.774;2023-06-22T12:35:54;27.70;75.30
29775;DHT22;16676;51.202;6.774;2023-06-22T12:39:56;27.70;73.30
29775;DHT22;16676;51.202;6.774;2023-06-22T12:43:58;27.70;75.00
29775;DHT22;16676;51.202;6.774;2023-06-22T12:48:00;27.80;74.90
29775;DHT22;16676;51.202;6.774;2023-06-22T12:52:09;27.80;76.20
29775;DHT22;16676;51.202;6.774;2023-06-22T12:56:12;27.80;75.50
29775;DHT22;16676;51.202;6.774;2023-06-22T13:00:14;27.80;75.20
29775;DHT22;16676;51.202;6.774;2023-06-22T13:04:17;27.70;75.20
29775;DHT22;16676;51.202;6.774;2023-06-22T13:08:20;27.80;75.50
29775;DHT22;16676;51.202;6.774;2023-06-22T13:12:23;27.70;75.60
29775;DHT22;16676;51.202;6.774;2023-06-22T13:16:24;27.80;75.10
29775;DHT22;16676;51.202;6.774;2023-06-22T13:20:28;27.70;75.80
29775;DHT22;16676;51.202;6.774;2023-06-22T13:24:31;27.70;75.00
29775;DHT22;16676;51.202;6.774;2023-06-22T13:28:33;27.80;76.00
29775;DHT22;16676;51.202;6.774;2023-06-22T13:32:35;27.80;75.20
29775;DHT22;16676;51.202;6.774;2023-06-22T13:36:37;27.80;75.00
29775;DHT22;16676;51.202;6.774;2023-06-22T13:40:40;27.80;75.90
29775;DHT22;16676;51.202;6.774;2023-06-22T13:44:42;27.80;73.90
29775;DHT22;16676;51.202;6.774;2023-06-22T13:48:44;27.80;74.40
29775;DHT22;16676;51.202;6.774;2023-06-22T13:52:46;27.80;75.30
29775;DHT22;16676;51.202;6.774;2023-06-22T13:56:49;27.80;73.70
29775;DHT22;16676;51.202;6.774;2023-06-22T14:00:51;27.80;75.60
29775;DHT22;16676;51.202;6.774;2023-06-22T14:04:53;27.80;75.40
29775;DHT22;16676;51.202;6.774;2023-06-22T14:08:55;27.80;75.00
29775;DHT22;16676;51.202;6.774;2023-06-22T14:12:58;27.80;74.10
29775;DHT22;16676;51.202;6.774;2023-06-22T14:17:00;27.80;73.70
29775;DHT22;16676;51.202;6.774;2023-06-22T14:21:02;27.90;73.20
29775;DHT22;16676;51.202;6.774;2023-06-22T14:25:05;27.90;72.60
29775;DHT22;16676;51.202;6.774;2023-06-22T14:29:09;27.80;73.60
29775;DHT22;16676;51.202;6.774;2023-06-22T14:33:11;27.80;72.40
29775;DHT22;16676;51.202;6.774;2023-06-22T14:37:13;27.80;71.50
29775;DHT22;16676;51.202;6.774;2023-06-22T14:41:15;27.80;71.50
29775;DHT22;16676;51.202;6.774;2023-06-22T14:45:19;27.80;71.40
29775;DHT22;16676;51.202;6.774;2023-06-22T14:49:21;27.80;72.40
29775;DHT22;16676;51.202;6.774;2023-06-22T14:53:23;27.80;73.20
29775;DHT22;16676;51.202;6.774;2023-06-22T14:57:25;27.70;72.30
29775;DHT22;16676;51.202;6.774;2023-06-22T15:01:28;27.60;73.10
29775;DHT22;16676;51.202;6.774;2023-06-22T15:05:30;27.50;72.40
29775;DHT22;16676;51.202;6.774;2023-06-22T15:09:32;27.50;73.40
29775;DHT22;16676;51.202;6.774;2023-06-22T15:13:34;27.50;73.00
29775;DHT22;16676;51.202;6.774;2023-06-22T15:17:38;27.40;73.10
29775;DHT22;16676;51.202;6.774;2023-06-22T15:21:40;27.40;72.60
29775;DHT22;16676;51.202;6.774;2023-06-22T15:25:42;27.40;74.60
29775;DHT22;16676;51.202;6.774;2023-06-22T15:29:45;27.50;73.70
29775;DHT22;16676;51.202;6.774;2023-06-22T15:33:48;27.50;72.80
29775;DHT22;16676;51.202;6.774;2023-06-22T15:37:50;27.50;72.50
29775;DHT22;16676;51.202;6.774;2023-06-22T15:41:52;27.50;72.60
29775;DHT22;16676;51.202;6.774;2023-06-22T15:45:55;27.40;72.90
29775;DHT22;16676;51.202;6.774;2023-06-22T15:49:58;27.40;73.80
29775;DHT22;16676;51.202;6.774;2023-06-22T15:54:00;27.40;73.10
29775;DHT22;16676;51.202;6.774;2023-06-22T15:58:02;27.40;74.50
29775;DHT22;16676;51.202;6.774;2023-06-22T16:02:05;27.40;74.00
29775;DHT22;16676;51.202;6.774;2023-06-22T16:06:08;27.40;75.00
29775;DHT22;16676;51.202;6.774;2023-06-22T16:10:10;27.40;75.10
29775;DHT22;16676;51.202;6.774;2023-06-22T16:14:13;27.40;76.30
29775;DHT22;16676;51.202;6.774;2023-06-22T16:18:15;27.40;77.10
29775;DHT22;16676;51.202;6.774;2023-06-22T16:22:19;27.30;75.30
29775;DHT22;16676;51.202;6.774;2023-06-22T16:26:20;27.30;75.40
29775;DHT22;16676;51.202;6.774;2023-06-22T16:30:22;27.30;75.80
29775;DHT22;16676;51.202;6.774;2023-06-22T16:34:24;27.30;76.00
29775;DHT22;16676;51.202;6.774;2023-06-22T16:38:27;27.30;76.00
29775;DHT22;16676;51.202;6.774;2023-06-22T16:42:30;27.20;75.80
29775;DHT22;16676;51.202;6.774;2023-06-22T16:46:33;27.10;76.40
29775;DHT22;16676;51.202;6.774;2023-06-22T16:50:35;27.10;76.30
29775;DHT22;16676;51.202;6.774;2023-06-22T16:54:38;27.00;76.20
29775;DHT22;16676;51.202;6.774;2023-06-22T16:58:41;27.00;76.60
29775;DHT22;16676;51.202;6.774;2023-06-22T17:02:46;27.10;77.00
29775;DHT22;16676;51.202;6.774;2023-06-22T17:06:52;27.00;76.30
29775;DHT22;16676;51.202;6.774;2023-06-22T17:10:57;27.00;76.00
29775;DHT22;16676;51.202;6.774;2023-06-22T17:15:00;27.00;76.70
29775;DHT22;16676;51.202;6.774;2023-06-22T17:19:03;27.00;76.60
29775;DHT22;16676;51.202;6.774;2023-06-22T17:23:06;26.90;76.10
29775;DHT22;16676;51.202;6.774;2023-06-22T17:27:10;26.90;76.20
29775;DHT22;16676;51.202;6.774;2023-06-22T17:31:12;26.90;75.20
29775;DHT22;16676;51.202;6.774;2023-06-22T17:35:14;26.80;74.80
29775;DHT22;16676;51.202;6.774;2023-06-22T17:39:18;26.80;76.80
29775;DHT22;16676;51.202;6.774;2023-06-22T17:43:22;26.80;75.20
29775;DHT22;16676;51.202;6.774;2023-06-22T17:47:24;26.80;74.50
29775;DHT22;16676;51.202;6.774;2023-06-22T17:51:26;26.70;74.60
29775;DHT22;16676;51.202;6.774;2023-06-22T17:55:28;26.70;74.70
29775;DHT22;16676;51.202;6.774;2023-06-22T17:59:32;26.60;73.80
29775;DHT22;16676;51.202;6.774;2023-06-22T18:03:35;26.50;73.50
29775;DHT22;16676;51.202;6.774;2023-06-22T18:07:38;26.50;74.20
29775;DHT22;16676;51.202;6.774;2023-06-22T18:11:44;26.70;73.50
29775;DHT22;16676;51.202;6.774;2023-06-22T18:15:47;26.80;74.30
29775;DHT22;16676;51.202;6.774;2023-06-22T18:19:51;26.90;74.70
29775;DHT22;16676;51.202;6.774;2023-06-22T18:23:54;27.00;74.40
29775;DHT22;16676;51.202;6.774;2023-06-22T18:27:56;27.00;74.20
29775;DHT22;16676;51.202;6.774;2023-06-22T18:32:00;27.00;76.20
29775;DHT22;16676;51.202;6.774;2023-06-22T18:36:04;27.10;73.50
29775;DHT22;16676;51.202;6.774;2023-06-22T18:40:08;27.10;76.60
29775;DHT22;16676;51.202;6.774;2023-06-22T18:44:11;27.10;75.20
29775;DHT22;16676;51.202;6.774;2023-06-22T18:48:24;27.10;76.40
29775;DHT22;16676;51.202;6.774;2023-06-22T18:52:26;27.10;73.40
29775;DHT22;16676;51.202;6.774;2023-06-22T18:56:28;27.10;73.50
29775;DHT22;16676;51.202;6.774;2023-06-22T19:00:30;27.10;71.70
29775;DHT22;16676;51.202;6.774;2023-06-22T19:04:33;27.10;76.50
29775;DHT22;16676;51.202;6.774;2023-06-22T19:09:14;27.10;73.20
29775;DHT22;16676;51.202;6.774;2023-06-22T19:13:25;27.10;73.60
29775;DHT22;16676;51.202;6.774;2023-06-22T19:17:27;27.10;73.80
29775;DHT22;16676;51.202;6.774;2023-06-22T19:21:31;27.10;72.70
29775;DHT22;16676;51.202;6.774;2023-06-22T19:25:32;27.10;74.30
29775;DHT22;16676;51.202;6.774;2023-06-22T19:29:36;27.10;73.00
29775;DHT22;16676;51.202;6.774;2023-06-22T19:33:38;27.10;71.80
29775;DHT22;16676;51.202;6.774;2023-06-22T19:37:41;27.10;71.70
29775;DHT22;16676;51.202;6.774;2023-06-22T19:41:45;27.10;71.10
29775;DHT22;16676;51.202;6.774;2023-06-22T19:45:47;27.10;72.20
29775;DHT22;16676;51.202;6.774;2023-06-22T19:49:57;27.10;71.80
29775;DHT22;16676;51.202;6.774;2023-06-22T19:54:05;27.00;77.50
29775;DHT22;16676;51.202;6.774;2023-06-22T19:58:08;27.10;76.50
29775;DHT22;16676;51.202;6.774;2023-06-22T20:02:10;27.10;75.30
29775;DHT22;16676;51.202;6.774;2023-06-22T20:06:14;27.10;74.70
29775;DHT22;16676;51.202;6.774;2023-06-22T20:10:20;27.10;76.30
29775;DHT22;16676;51.202;6.774;2023-06-22T20:14:22;27.10;78.00
29775;DHT22;16676;51.202;6.774;2023-06-22T20:18:27;27.10;75.40
29775;DHT22;16676;51.202;6.774;2023-06-22T20:22:29;27.10;76.30
29775;DHT22;16676;51.202;6.774;2023-06-22T20:26:38;27.10;76.50
29775;DHT22;16676;51.202;6.774;2023-06-22T20:30:42;27.20;77.90
29775;DHT22;16676;51.202;6.774;2023-06-22T20:34:45;27.20;76.00
29775;DHT22;16676;51.202;6.774;2023-06-22T20:38:48;27.20;77.80
29775;DHT22;16676;51.202;6.774;2023-06-22T20:42:53;27.20;77.00
29775;DHT22;16676;51.202;6.774;2023-06-22T20:46:55;27.20;76.20
29775;DHT22;16676;51.202;6.774;2023-06-22T20:50:56;27.20;77.30
29775;DHT22;16676;51.202;6.774;2023-06-22T20:54:58;27.10;74.80
29775;DHT22;16676;51.202;6.774;2023-06-22T20:59:02;27.20;76.00
29775;DHT22;16676;51.202;6.774;2023-06-22T21:03:05;27.10;74.30
29775;DHT22;16676;51.202;6.774;2023-06-22T21:07:08;27.20;76.50
29775;DHT22;16676;51.202;6.774;2023-06-22T21:11:10;27.20;76.00
29775;DHT22;16676;51.202;6.774;2023-06-22T21:15:14;27.10;75.10
29775;DHT22;16676;51.202;6.774;2023-06-22T21:19:16;27.10;75.50
29775;DHT22;16676;51.202;6.774;2023-06-22T21:23:18;27.10;73.40
29775;DHT22;16676;51.202;6.774;2023-06-22T21:27:20;27.10;75.00
29775;DHT22;16676;51.202;6.774;2023-06-22T21:31:23;27.10;78.20
29775;DHT22;16676;51.202;6.774;2023-06-22T21:35:25;27.10;74.80
29775;DHT22;16676;51.202;6.774;2023-06-22T21:39:27;27.10;71.80
29775;DHT22;16676;51.202;6.774;2023-06-22T21:43:29;27.10;75.80
29775;DHT22;16676;51.202;6.774;2023-06-22T21:47:32;27.10;74.50
29775;DHT22;16676;51.202;6.774;2023-06-22T21:51:35;27.10;77.50
29775;DHT22;16676;51.202;6.774;2023-06-22T21:55:37;27.10;77.10
29775;DHT22;16676;51.202;6.774;2023-06-22T21:59:38;27.10;74.30
29775;DHT22;16676;51.202;6.774;2023-06-22T22:03:42;27.10;76.20
29775;DHT22;16676;51.202;6.774;2023-06-22T22:07:44;27.10;73.40
29775;DHT22;16676;51.202;6.774;2023-06-22T22:11:46;27.10;75.00
29775;DHT22;16676;51.202;6.774;2023-06-22T22:15:48;27.10;73.80
29775;DHT22;16676;51.202;6.774;2023-06-22T22:19:53;27.10;73.50
29775;DHT22;16676;51.202;6.774;2023-06-22T22:23:55;27.10;74.60
29775;DHT22;16676;51.202;6.774;2023-06-22T22:27:57;27.10;73.80
29775;DHT22;16676;51.202;6.774;2023-06-22T22:31:58;27.10;72.50
29775;DHT22;16676;51.202;6.774;2023-06-22T22:36:02;27.10;74.10
29775;DHT22;16676;51.202;6.774;2023-06-22T22:40:06;27.10;75.20
29775;DHT22;16676;51.202;6.774;2023-06-22T22:44:10;27.10;74.10
29775;DHT22;16676;51.202;6.774;2023-06-22T22:48:12;27.10;73.20
29775;DHT22;16676;51.202;6.774;2023-06-22T22:52:16;27.10;73.20
29775;DHT22;16676;51.202;6.774;2023-06-22T22:56:18;27.10;74.40
29775;DHT22;16676;51.202;6.774;2023-06-22T23:00:20;27.10;73.00
29775;DHT22;16676;51.202;6.774;2023-06-22T23:04:22;27.10;73.80
29775;DHT22;16676;51.202;6.774;2023-06-22T23:08:25;27.10;72.80
29775;DHT22;16676;51.202;6.774;2023-06-22T23:12:28;27.10;72.90
29775;DHT22;16676;51.202;6.774;2023-06-22T23:16:30;27.10;74.50
29775;DHT22;16676;51.202;6.774;2023-06-22T23:20:32;27.10;74.10
29775;DHT22;16676;51.202;6.774;2023-06-22T23:24:35;27.00;72.30
29775;DHT22;16676;51.202;6.774;2023-06-22T23:28:37;27.10;75.00
29775;DHT22;16676;51.202;6.774;2023-06-22T23:32:39;27.00;72.80
29775;DHT22;16676;51.202;6.774;2023-06-22T23:36:41;27.00;71.70
29775;DHT22;16676;51.202;6.774;2023-06-22T23:40:45;27.00;72.30
29775;DHT22;16676;51.202;6.774;2023-06-22T23:44:47;27.00;73.70
29775;DHT22;16676;51.202;6.774;2023-06-22T23:48:49;27.00;73.50
29775;DHT22;16676;51.202;6.774;2023-06-22T23:52:52;27.10;71.50
29775;DHT22;16676;51.202;6.774;2023-06-22T23:56:55;27.00;72.10
